KBVX

Batesville Regional Airport

Batesville, Arkansas, USA
METAR KBVX 231056Z AUTO 31003KT 10SM CLR 06/05 A3024 RMK AO2 SLP242 T00560050
Observed Flight Rules
Oct-23 @ 10:56 UTC (54 minutes ago) Visual Flight Rules
Wind Visibility Clouds
310° at 3 knots 10 miles
  • Clear skies
Temperatures Readings
Current 6°C / 43°F
Dewpoint 5°C / 41°F
Humidity 93%
Altimeter 30.24" Hg
Pressure 1024.2 hPa
Elevation 141
METAR KBVX 231056Z AUTO 31003KT 10SM CLR 06/05 A3024 RMK AO2 SLP242 T00560050
Observed Flight Rules
Oct-23 @ 10:56 UTC
(54 minutes ago)
VFR
Wind Visibility
310° at 3 knots 10 miles
Clouds
  • Clear skies
Temperature Dewpoint
6°C / 43°F 5°C / 41°F
Humidity Altimeter Pressure
93% 30.24" Hg 1024.2 hPa